»·PEaware :: N5276P KAJO-KVCV

N5276P :: KAJO-KVCV

FLIGHT INFORMATION

Flight Status: Arrived
Operator: Privately registered:
United States
More flights under this callsign
Pilot: James F. (26163)
Aircraft: CESSNA 172 SKYHAWK
(C172)
More flights by this aircraft type
Origin: KAJO Corona Mun
United States
Destination: KVCV Socal Logistics
United States
More flights between these airports :: More routes between these airports
Route: PDZ V442 APLES
File this flight plan on PilotEdge
Remarks: I-11
Altitude:
(Current/Filed)
9,000ft
Speed:
(Current/Filed)
110kts
Departed: 02-Dec-19 03:28 PM
Arrived: 02-Dec-19 04:54 PM
Distance/Time
Traveled:
44nm/1:26
Distance/Time
To Go:
Arrived

Flight Plot

Page will automatically refresh every two minutes.


Map Options




Map Legend


Flown Route
Filed Route
Departure Airport
Arrival Airport
Navaid (VOR, NDB)
Fix

Horizontal Profiles

Position Reports

Time Latitude Longitude Heading Altitude Ground
Speed
02-Dec-19 15:12 33.896978 -117.607296 180 537ft 0kts
02-Dec-19 15:13 33.896978 -117.607296 180 537ft 0kts
02-Dec-19 15:14 33.896978 -117.607296 180 537ft 0kts
02-Dec-19 15:15 33.896978 -117.607296 180 537ft 0kts
02-Dec-19 15:16 33.896978 -117.607296 180 537ft 0kts
02-Dec-19 15:17 33.896978 -117.607296 180 537ft 0kts
02-Dec-19 15:18 33.896889 -117.607240 118 537ft 4kts
02-Dec-19 15:19 33.897200 -117.607492 336 537ft 1kts
02-Dec-19 15:20 33.897204 -117.607493 347 537ft 0kts
02-Dec-19 15:21 33.897204 -117.607493 347 537ft 0kts
02-Dec-19 15:22 33.897204 -117.607493 347 537ft 0kts
02-Dec-19 15:23 33.897204 -117.607493 347 537ft 0kts
02-Dec-19 15:24 33.897204 -117.607493 347 537ft 0kts
02-Dec-19 15:25 33.897204 -117.607493 347 537ft 0kts
02-Dec-19 15:26 33.897204 -117.607493 347 537ft 0kts
02-Dec-19 15:27 33.897663 -117.600897 88 598ft 75kts
02-Dec-19 15:28 33.908864 -117.578883 83 1512ft 75kts
02-Dec-19 15:29 33.912249 -117.554616 73 2325ft 74kts
02-Dec-19 15:30 33.918640 -117.530509 72 3070ft 77kts
02-Dec-19 15:31 33.933366 -117.512286 38 3767ft 80kts
02-Dec-19 15:32 33.947480 -117.490582 6 4481ft 78kts
02-Dec-19 15:33 33.948823 -117.503619 190 5160ft 73kts
02-Dec-19 15:34 33.931084 -117.512291 228 5717ft 81kts
02-Dec-19 15:35 33.915162 -117.532418 237 6315ft 83kts
02-Dec-19 15:36 33.931230 -117.540806 37 6850ft 105kts
02-Dec-19 15:37 33.952962 -117.516675 39 7352ft 107kts
02-Dec-19 15:38 33.952067 -117.489794 168 7829ft 93kts
02-Dec-19 15:39 33.934351 -117.505558 228 8367ft 83kts
02-Dec-19 15:40 33.918784 -117.526119 225 8888ft 83kts
02-Dec-19 15:41 33.925057 -117.546720 4 9007ft 115kts
02-Dec-19 15:42 33.942219 -117.515256 57 8999ft 119kts
02-Dec-19 15:43 33.970608 -117.496165 21 8993ft 118kts
02-Dec-19 15:44 34.000086 -117.478583 22 8979ft 118kts
02-Dec-19 15:45 34.029262 -117.460718 22 8962ft 117kts
02-Dec-19 15:46 34.057613 -117.443146 21 8945ft 116kts
02-Dec-19 15:47 34.086499 -117.425143 21 8923ft 117kts
02-Dec-19 15:48 34.114400 -117.407807 22 8917ft 129kts
02-Dec-19 15:49 34.146490 -117.387750 22 8906ft 129kts
02-Dec-19 15:50 34.178434 -117.367708 22 8897ft 129kts
02-Dec-19 15:51 34.209960 -117.347866 23 8889ft 129kts
02-Dec-19 15:52 34.241596 -117.327448 23 8888ft 128kts
02-Dec-19 15:53 34.272955 -117.307463 22 8918ft 127kts
02-Dec-19 15:54 34.304201 -117.287736 22 8945ft 126kts
02-Dec-19 15:55 34.335457 -117.267968 22 8964ft 127kts
02-Dec-19 15:56 34.367616 -117.247728 22 8857ft 130kts
02-Dec-19 15:57 34.399113 -117.227731 22 8864ft 127kts
02-Dec-19 15:58 34.430563 -117.207881 22 8871ft 127kts
02-Dec-19 15:59 34.461861 -117.188073 22 8886ft 126kts
02-Dec-19 16:00 34.493234 -117.168761 6 8901ft 123kts
02-Dec-19 16:01 34.525533 -117.157262 12 8938ft 123kts
02-Dec-19 16:03 34.558830 -117.146564 3 8781ft 112kts
02-Dec-19 16:04 34.588663 -117.143090 355 8258ft 103kts
02-Dec-19 16:05 34.618166 -117.144735 348 7754ft 108kts
02-Dec-19 16:06 34.648263 -117.151836 341 7259ft 111kts
02-Dec-19 16:07 34.677287 -117.164474 334 6756ft 111kts
02-Dec-19 16:08 34.703205 -117.181406 326 6569ft 99kts
02-Dec-19 16:09 34.726866 -117.202763 318 6573ft 110kts
02-Dec-19 16:10 34.748459 -117.229029 310 6572ft 110kts
02-Dec-19 16:11 34.766608 -117.259038 302 6573ft 110kts
02-Dec-19 16:12 34.780833 -117.291972 294 6440ft 110kts
02-Dec-19 16:13 34.790787 -117.326889 286 5789ft 109kts
02-Dec-19 16:14 34.796320 -117.363211 278 5267ft 103kts
02-Dec-19 16:15 34.777157 -117.376881 174 4838ft 100kts
02-Dec-19 16:16 34.749691 -117.377168 184 4334ft 98kts
02-Dec-19 16:17 34.723919 -117.379401 184 4271ft 98kts
02-Dec-19 16:18 34.696793 -117.381456 182 4272ft 97kts
02-Dec-19 16:19 34.669472 -117.383494 184 3817ft 95kts
02-Dec-19 16:20 34.642719 -117.385775 184 3198ft 98kts
02-Dec-19 16:20 34.620312 -117.387579 182 3332ft 98kts
02-Dec-19 16:22 34.599358 -117.407810 254 4339ft 82kts
02-Dec-19 16:23 34.602476 -117.436921 284 5033ft 88kts
02-Dec-19 16:23 34.607110 -117.461013 284 5637ft 87kts
02-Dec-19 16:25 34.614389 -117.498996 284 5976ft 118kts
02-Dec-19 16:25 34.620508 -117.531060 284 5969ft 110kts
02-Dec-19 16:26 34.628666 -117.566174 289 5970ft 107kts
02-Dec-19 16:27 34.637565 -117.602243 285 5971ft 106kts
02-Dec-19 16:28 34.644536 -117.640634 283 5973ft 106kts
02-Dec-19 16:29 34.650421 -117.676712 282 5975ft 106kts
02-Dec-19 16:30 34.656010 -117.711982 282 5975ft 106kts
02-Dec-19 16:34 33.896969 -117.607296 180 537ft 0kts
02-Dec-19 16:35 34.363328 -117.488696 192 6056ft 151kts
02-Dec-19 16:36 34.589782 -117.628761 205 6202ft 103kts
02-Dec-19 16:37 34.567628 -117.652125 226 5986ft 109kts
02-Dec-19 16:38 34.579136 -117.669533 37 5984ft 106kts
02-Dec-19 16:39 34.583266 -117.633742 82 5985ft 111kts
02-Dec-19 16:40 34.585589 -117.596096 83 5982ft 111kts
02-Dec-19 16:41 34.587753 -117.557777 83 5673ft 118kts
02-Dec-19 16:42 34.589746 -117.522168 83 5143ft 109kts
02-Dec-19 16:43 34.592197 -117.478394 84 4562ft 133kts
02-Dec-19 16:44 34.594417 -117.435278 87 3815ft 117kts
02-Dec-19 16:49 34.594912 -117.414633 85 3750ft 89kts
02-Dec-19 16:50 34.598181 -117.384166 60 3544ft 93kts
02-Dec-19 16:51 34.611784 -117.359098 92 3427ft 77kts
02-Dec-19 16:52 34.600000 -117.367122 225 2869ft 65kts
02-Dec-19 16:53 34.594254 -117.372438 177 2858ft 0kts
02-Dec-19 16:54 34.591257 -117.373163 207 2865ft 33kts
02-Dec-19 16:55 34.587738 -117.375724 311 2871ft 0kts
02-Dec-19 16:56 34.602991 -117.358857 248 3163ft 72kts
02-Dec-19 16:57 34.597731 -117.369877 225 2851ft 43kts
02-Dec-19 16:58 34.597170 -117.370517 222 2851ft 30kts

Navigation Log

Ident Type
Flight plan parsing failed, navigation log unavailable